Evans Junction, Iowa
Current Conditions -  °F | °C
As of 5:55 AM on Saturday 25 Oct 2014 (Local Time) from KPEA Reporting Station
Clear Clear  
Wind Chill: 47°   Ceiling: Unl
Heat Index: 50°   Visibility: 7mi
Dew Point: 49°   Wind: 7mph
Humidity: 99%   Direction: 330°NNW
Pressure: 30.01"   Gusts: NA
Location:  41.2952°N, 92.7652°W
Report Text: KPEA 251055Z AUTO 33006KT 7SM CLR 10/10 A3001 RMK AO2 T00980097
Loading
Personal Weather Stations






























Interactive Weather Map
Tropical Storm Tracking
New forecast layout! Learn more

10-Day Weather Forecast

Advertisements
Track Severe Weather on mobile